»·PEaware :: N8233C KTOA-KVNY

N8233C :: KTOA-KVNY

FLIGHT INFORMATION

Flight Status: Arrived
Operator: Privately registered:
United States
More flights under this callsign
Pilot: Robert F. (22449)
Aircraft: CESSNA 172 SKYHAWK
(C172)
More flights by this aircraft type
Origin: KTOA Zamperini
United States
Destination: KVNY Van Nuys
United States
More flights between these airports :: More routes between these airports
Route: +LAX170 LIMBO V64 SMO125 SMO SMO317 CANOG
File this flight plan on PilotEdge
Remarks:
Altitude:
(Current/Filed)
4,000ft
Speed:
(Current/Filed)
105kts
Departed: 04-Jan-20 12:32 PM
Arrived: 04-Jan-20 02:15 PM
Distance/Time
Traveled:
25nm/1:43
Distance/Time
To Go:
Arrived

Flight Plot

Page will automatically refresh every two minutes.

Flight plan parsing failed; only flown route is shown


Map Options




Map Legend


Flown Route
Filed Route
Departure Airport
Arrival Airport
Navaid (VOR, NDB)
Fix

Horizontal Profiles

Position Reports

Time Latitude Longitude Heading Altitude Ground
Speed
04-Jan-20 11:45 33.801601 -118.341420 218 105ft 0kts
04-Jan-20 11:46 33.801601 -118.341420 218 105ft 0kts
04-Jan-20 11:47 33.801601 -118.341420 218 105ft 0kts
04-Jan-20 11:48 33.801601 -118.341420 218 105ft 0kts
04-Jan-20 11:49 33.801601 -118.341420 218 105ft 0kts
04-Jan-20 11:50 33.801601 -118.341420 218 105ft 0kts
04-Jan-20 11:51 33.801601 -118.341420 218 105ft 0kts
04-Jan-20 11:52 33.801601 -118.341420 218 105ft 0kts
04-Jan-20 11:53 33.801601 -118.341420 218 105ft 0kts
04-Jan-20 11:54 33.801601 -118.341420 218 105ft 0kts
04-Jan-20 11:55 33.801601 -118.341420 218 105ft 0kts
04-Jan-20 11:56 33.801601 -118.341420 218 105ft 0kts
04-Jan-20 11:57 33.801601 -118.341420 218 105ft 0kts
04-Jan-20 11:58 33.801601 -118.341420 218 105ft 0kts
04-Jan-20 11:59 33.801601 -118.341420 218 105ft 0kts
04-Jan-20 12:01 33.801601 -118.341420 218 105ft 0kts
04-Jan-20 12:02 33.801601 -118.341420 218 105ft 0kts
04-Jan-20 12:03 33.801601 -118.341420 218 105ft 0kts
04-Jan-20 12:04 33.801601 -118.341420 218 105ft 0kts
04-Jan-20 12:05 33.801601 -118.341420 218 105ft 0kts
04-Jan-20 12:06 33.801601 -118.341420 218 105ft 0kts
04-Jan-20 12:07 33.801601 -118.341420 218 105ft 0kts
04-Jan-20 12:08 33.801601 -118.341420 218 105ft 0kts
04-Jan-20 12:09 33.801601 -118.341420 218 105ft 0kts
04-Jan-20 12:10 33.801601 -118.341420 218 105ft 0kts
04-Jan-20 12:11 33.801601 -118.341420 218 105ft 0kts
04-Jan-20 12:12 33.801601 -118.341420 218 105ft 0kts
04-Jan-20 12:13 33.801601 -118.341420 218 105ft 0kts
04-Jan-20 12:14 33.801601 -118.341420 218 105ft 0kts
04-Jan-20 12:15 33.801601 -118.341420 218 105ft 0kts
04-Jan-20 12:16 33.801601 -118.341420 218 105ft 0kts
04-Jan-20 12:17 33.801601 -118.341420 218 105ft 0kts
04-Jan-20 12:17 33.801601 -118.341420 218 105ft 0kts
04-Jan-20 12:19 33.801601 -118.341420 218 105ft 0kts
04-Jan-20 12:20 33.801601 -118.341420 218 105ft 0kts
04-Jan-20 12:20 33.801601 -118.341420 218 105ft 0kts
04-Jan-20 12:21 33.801601 -118.341420 218 105ft 0kts
04-Jan-20 12:23 33.801601 -118.341420 218 105ft 0kts
04-Jan-20 12:23 33.801359 -118.340822 134 105ft 6kts
04-Jan-20 12:24 33.799999 -118.337493 129 104ft 28kts
04-Jan-20 12:26 33.799089 -118.333285 39 101ft 0kts
04-Jan-20 12:26 33.799089 -118.333285 39 101ft 0kts
04-Jan-20 12:27 33.799089 -118.333285 39 101ft 0kts
04-Jan-20 12:28 33.799089 -118.333285 39 101ft 0kts
04-Jan-20 12:29 33.799089 -118.333285 39 101ft 0kts
04-Jan-20 12:30 33.799181 -118.333198 38 100ft 10kts
04-Jan-20 12:31 33.805187 -118.341419 305 430ft 64kts
04-Jan-20 12:32 33.813933 -118.355838 308 984ft 80kts
04-Jan-20 12:33 33.822184 -118.370032 308 1616ft 79kts
04-Jan-20 12:34 33.830141 -118.384231 306 2178ft 81kts
04-Jan-20 12:35 33.837736 -118.397894 306 2706ft 81kts
04-Jan-20 12:36 33.845065 -118.411735 301 3220ft 80kts
04-Jan-20 12:37 33.854647 -118.424740 306 3755ft 78kts
04-Jan-20 12:38 33.863770 -118.438608 284 4109ft 83kts
04-Jan-20 12:39 33.848367 -118.445407 173 4091ft 111kts
04-Jan-20 12:40 33.825859 -118.443227 190 4049ft 109kts
04-Jan-20 12:41 33.804434 -118.444635 190 4029ft 110kts
04-Jan-20 12:42 33.782671 -118.446918 191 3990ft 112kts
04-Jan-20 12:43 33.765789 -118.432491 101 3987ft 123kts
04-Jan-20 12:44 33.764303 -118.403888 83 3924ft 121kts
04-Jan-20 12:45 33.765582 -118.375396 87 3951ft 121kts
04-Jan-20 12:46 33.766849 -118.346864 85 4011ft 120kts
04-Jan-20 12:47 33.768232 -118.318681 84 4065ft 120kts
04-Jan-20 12:48 33.769734 -118.289987 83 4075ft 133kts
04-Jan-20 12:49 33.771602 -118.259905 83 4009ft 141kts
04-Jan-20 12:50 33.773508 -118.227800 83 4008ft 141kts
04-Jan-20 12:51 33.788140 -118.210111 344 4003ft 124kts
04-Jan-20 12:52 33.808490 -118.223590 315 4007ft 121kts
04-Jan-20 12:53 33.823148 -118.245107 307 4009ft 121kts
04-Jan-20 12:54 33.837725 -118.267412 306 4009ft 121kts
04-Jan-20 12:55 33.852287 -118.289316 306 4010ft 121kts
04-Jan-20 12:56 33.867521 -118.310524 315 4011ft 123kts
04-Jan-20 12:57 33.885432 -118.328479 316 4012ft 124kts
04-Jan-20 12:58 33.903236 -118.346714 315 4012ft 124kts
04-Jan-20 12:59 33.920606 -118.364712 315 4012ft 124kts
04-Jan-20 13:00 33.937818 -118.382655 315 4011ft 124kts
04-Jan-20 13:01 33.956098 -118.401352 316 4011ft 124kts
04-Jan-20 13:02 33.974503 -118.420264 316 4011ft 124kts
04-Jan-20 13:03 33.993069 -118.439445 316 4011ft 124kts
04-Jan-20 13:04 34.011998 -118.459019 316 4012ft 124kts
04-Jan-20 13:05 34.029612 -118.478378 311 4125ft 116kts
04-Jan-20 13:06 34.045462 -118.497534 311 4475ft 107kts
04-Jan-20 13:07 34.060863 -118.515660 311 4832ft 105kts
04-Jan-20 13:08 34.076452 -118.533672 311 5019ft 116kts
04-Jan-20 13:09 34.093922 -118.554070 311 5016ft 124kts
04-Jan-20 13:10 34.111226 -118.574572 311 5012ft 124kts
04-Jan-20 13:11 34.129499 -118.594852 315 5009ft 123kts
04-Jan-20 13:12 34.147842 -118.614994 315 5007ft 121kts
04-Jan-20 13:13 34.165514 -118.635168 315 5005ft 120kts
04-Jan-20 13:14 34.184470 -118.650284 3 5001ft 125kts
04-Jan-20 13:15 34.209444 -118.641207 13 5003ft 126kts
04-Jan-20 13:16 34.234163 -118.631723 13 5001ft 125kts
04-Jan-20 13:17 34.258617 -118.622655 13 5000ft 124kts
04-Jan-20 13:18 34.283145 -118.613642 13 5000ft 124kts
04-Jan-20 13:19 34.307699 -118.604679 13 5000ft 124kts
04-Jan-20 13:20 34.332430 -118.597403 3 5000ft 123kts
04-Jan-20 13:21 34.358576 -118.594071 3 5000ft 123kts
04-Jan-20 13:22 34.383649 -118.590965 3 5000ft 123kts
04-Jan-20 13:23 34.409522 -118.587796 2 5001ft 123kts
04-Jan-20 13:24 34.434877 -118.584425 2 4987ft 110kts
04-Jan-20 13:25 34.456870 -118.580846 2 5003ft 102kts
04-Jan-20 13:26 34.478059 -118.573907 45 5009ft 116kts
04-Jan-20 13:27 34.470240 -118.546420 142 5011ft 127kts
04-Jan-20 13:28 34.450192 -118.526500 143 5006ft 116kts
04-Jan-20 13:29 34.431211 -118.512953 172 5003ft 96kts
04-Jan-20 13:30 34.411369 -118.509563 179 5004ft 100kts
04-Jan-20 13:31 34.390569 -118.507822 180 5000ft 102kts
04-Jan-20 13:32 34.369894 -118.506081 181 4913ft 102kts
04-Jan-20 13:33 34.349230 -118.504292 178 4535ft 101kts
04-Jan-20 13:34 34.328597 -118.502633 182 4081ft 101kts
04-Jan-20 13:35 34.308407 -118.500542 175 3560ft 101kts
04-Jan-20 13:36 34.288826 -118.497986 178 2926ft 98kts
04-Jan-20 13:37 34.269092 -118.497228 174 2388ft 92kts
04-Jan-20 13:38 34.250058 -118.494334 169 1774ft 95kts
04-Jan-20 13:39 34.231683 -118.492516 180 1336ft 91kts
04-Jan-20 13:40 34.211682 -118.489201 171 1311ft 111kts
04-Jan-20 13:41 34.189126 -118.483272 151 1718ft 117kts
04-Jan-20 13:42 34.167511 -118.474710 169 2276ft 110kts
04-Jan-20 13:43 34.145123 -118.469151 167 2705ft 115kts
04-Jan-20 13:44 34.123188 -118.463221 162 3146ft 114kts
04-Jan-20 13:45 34.102749 -118.455726 158 3562ft 114kts
04-Jan-20 13:46 34.080923 -118.450784 185 3695ft 124kts
04-Jan-20 13:47 34.056676 -118.452933 185 3690ft 129kts
04-Jan-20 13:48 34.031437 -118.454744 180 3623ft 127kts
04-Jan-20 13:49 34.007183 -118.460952 233 3594ft 121kts
04-Jan-20 13:50 34.011587 -118.485275 288 3648ft 114kts
04-Jan-20 13:51 34.017688 -118.512327 297 3637ft 118kts
04-Jan-20 13:52 34.027757 -118.536260 296 3924ft 106kts
04-Jan-20 13:53 34.031514 -118.562445 277 4064ft 113kts
04-Jan-20 13:54 34.035225 -118.590783 284 4038ft 118kts
04-Jan-20 13:55 34.051277 -118.606179 351 4037ft 115kts
04-Jan-20 13:56 34.073359 -118.613074 332 4038ft 118kts
04-Jan-20 13:57 34.094780 -118.626935 331 4037ft 123kts
04-Jan-20 13:58 34.116014 -118.639347 334 4033ft 104kts
04-Jan-20 13:59 34.134817 -118.650080 334 4035ft 104kts
04-Jan-20 14:00 34.153000 -118.660503 334 4034ft 104kts
04-Jan-20 14:01 34.171147 -118.670949 334 4034ft 104kts
04-Jan-20 14:02 34.188920 -118.679495 10 4064ft 93kts
04-Jan-20 14:03 34.197189 -118.661075 63 3973ft 92kts
04-Jan-20 14:04 34.199702 -118.640897 85 4081ft 93kts
04-Jan-20 14:05 34.199936 -118.620931 84 3844ft 98kts
04-Jan-20 14:06 34.200440 -118.601492 84 3341ft 95kts
04-Jan-20 14:07 34.200253 -118.581832 87 2723ft 93kts
04-Jan-20 14:08 34.200363 -118.562880 85 2134ft 91kts
04-Jan-20 14:09 34.200875 -118.543676 86 1588ft 85kts
04-Jan-20 14:10 34.207484 -118.526665 35 1689ft 85kts
04-Jan-20 14:11 34.221441 -118.514797 32 1704ft 85kts
04-Jan-20 14:12 34.228904 -118.498381 89 1686ft 86kts
04-Jan-20 14:13 34.216092 -118.489742 178 835ft 83kts
04-Jan-20 14:14 34.210267 -118.488683 90 806ft 0kts
04-Jan-20 14:15 34.210247 -118.487365 90 806ft 0kts

Navigation Log

Ident Type
Flight plan parsing failed, navigation log unavailable